sensor_id;sensor_type;location;lat;lon;timestamp;temperature;humidity
23149;DHT22;11743;51.228;22.498;2022-08-18T00:00:11;17.70;99.90
23149;DHT22;11743;51.228;22.498;2022-08-18T00:00:43;17.70;99.90
23149;DHT22;11743;51.228;22.498;2022-08-18T00:01:11;17.70;99.90
23149;DHT22;11743;51.228;22.498;2022-08-18T00:01:36;17.70;99.90
23149;DHT22;11743;51.228;22.498;2022-08-18T00:02:07;17.70;99.90
23149;DHT22;11743;51.228;22.498;2022-08-18T00:02:30;18.00;99.90
23149;DHT22;11743;51.228;22.498;2022-08-18T00:02:59;17.70;99.90
23149;DHT22;11743;51.228;22.498;2022-08-18T00:03:42;17.60;99.90
23149;DHT22;11743;51.228;22.498;2022-08-18T00:04:20;17.60;99.90
23149;DHT22;11743;51.228;22.498;2022-08-18T00:04:57;17.60;99.90
23149;DHT22;11743;51.228;22.498;2022-08-18T00:05:22;17.60;99.90
23149;DHT22;11743;51.228;22.498;2022-08-18T00:05:44;17.60;99.90
23149;DHT22;11743;51.228;22.498;2022-08-18T00:06:07;17.60;99.90
23149;DHT22;11743;51.228;22.498;2022-08-18T00:06:31;17.60;99.90
23149;DHT22;11743;51.228;22.498;2022-08-18T00:06:55;17.60;99.90
23149;DHT22;11743;51.228;22.498;2022-08-18T00:07:20;17.60;99.90
23149;DHT22;11743;51.228;22.498;2022-08-18T00:07:44;17.60;99.90
23149;DHT22;11743;51.228;22.498;2022-08-18T00:08:08;17.60;99.90
23149;DHT22;11743;51.228;22.498;2022-08-18T00:08:30;17.60;99.90
23149;DHT22;11743;51.228;22.498;2022-08-18T00:09:01;17.50;99.90
23149;DHT22;11743;51.228;22.498;2022-08-18T00:09:24;17.50;99.90
23149;DHT22;11743;51.228;22.498;2022-08-18T00:10:02;17.60;99.90
23149;DHT22;11743;51.228;22.498;2022-08-18T00:10:26;17.60;99.90
23149;DHT22;11743;51.228;22.498;2022-08-18T00:10:48;17.60;99.90
23149;DHT22;11743;51.228;22.498;2022-08-18T00:11:11;17.60;99.90
23149;DHT22;11743;51.228;22.498;2022-08-18T00:11:37;17.50;99.90
23149;DHT22;11743;51.228;22.498;2022-08-18T00:12:06;17.50;99.90
23149;DHT22;11743;51.228;22.498;2022-08-18T00:12:33;17.50;99.90
23149;DHT22;11743;51.228;22.498;2022-08-18T00:12:55;17.50;99.90
23149;DHT22;11743;51.228;22.498;2022-08-18T00:13:22;17.50;99.90
23149;DHT22;11743;51.228;22.498;2022-08-18T00:13:43;17.50;99.90
23149;DHT22;11743;51.228;22.498;2022-08-18T00:14:06;17.50;99.90
23149;DHT22;11743;51.228;22.498;2022-08-18T00:14:40;17.50;99.90
23149;DHT22;11743;51.228;22.498;2022-08-18T00:15:05;17.50;99.90
23149;DHT22;11743;51.228;22.498;2022-08-18T00:15:32;17.50;99.90
23149;DHT22;11743;51.228;22.498;2022-08-18T00:16:07;17.50;99.90
23149;DHT22;11743;51.228;22.498;2022-08-18T00:16:28;17.50;99.90
23149;DHT22;11743;51.228;22.498;2022-08-18T00:16:53;17.50;99.90
23149;DHT22;11743;51.228;22.498;2022-08-18T00:17:15;17.50;99.90
23149;DHT22;11743;51.228;22.498;2022-08-18T00:17:41;17.50;99.90
23149;DHT22;11743;51.228;22.498;2022-08-18T00:18:03;17.50;99.90
23149;DHT22;11743;51.228;22.498;2022-08-18T00:18:28;17.50;99.90
23149;DHT22;11743;51.228;22.498;2022-08-18T00:18:52;17.40;99.90
23149;DHT22;11743;51.228;22.498;2022-08-18T00:19:14;17.40;99.90
23149;DHT22;11743;51.228;22.498;2022-08-18T00:19:36;17.50;99.90
23149;DHT22;11743;51.228;22.498;2022-08-18T00:20:19;17.40;99.90
23149;DHT22;11743;51.228;22.498;2022-08-18T00:20:45;17.50;99.90
23149;DHT22;11743;51.228;22.498;2022-08-18T00:21:07;17.40;99.90
23149;DHT22;11743;51.228;22.498;2022-08-18T00:21:29;17.40;99.90
23149;DHT22;11743;51.228;22.498;2022-08-18T00:21:51;17.40;99.90
23149;DHT22;11743;51.228;22.498;2022-08-18T00:22:16;17.40;99.90
23149;DHT22;11743;51.228;22.498;2022-08-18T00:22:38;17.40;99.90
23149;DHT22;11743;51.228;22.498;2022-08-18T00:23:00;17.40;99.90
23149;DHT22;11743;51.228;22.498;2022-08-18T00:23:26;17.40;99.90
23149;DHT22;11743;51.228;22.498;2022-08-18T00:23:49;17.40;99.90
23149;DHT22;11743;51.228;22.498;2022-08-18T00:24:11;16.80;99.90
23149;DHT22;11743;51.228;22.498;2022-08-18T00:24:36;17.40;99.90
23149;DHT22;11743;51.228;22.498;2022-08-18T00:25:11;17.40;99.90
23149;DHT22;11743;51.228;22.498;2022-08-18T00:25:34;17.40;99.90
23149;DHT22;11743;51.228;22.498;2022-08-18T00:25:56;17.40;99.90
23149;DHT22;11743;51.228;22.498;2022-08-18T00:26:20;17.40;99.90
23149;DHT22;11743;51.228;22.498;2022-08-18T00:26:57;17.40;99.90
23149;DHT22;11743;51.228;22.498;2022-08-18T00:27:22;17.40;99.90
23149;DHT22;11743;51.228;22.498;2022-08-18T00:27:49;17.40;99.90
23149;DHT22;11743;51.228;22.498;2022-08-18T00:28:11;17.40;99.90
23149;DHT22;11743;51.228;22.498;2022-08-18T00:28:35;17.40;99.90
23149;DHT22;11743;51.228;22.498;2022-08-18T00:28:57;17.40;99.90
23149;DHT22;11743;51.228;22.498;2022-08-18T00:29:19;17.40;99.90
23149;DHT22;11743;51.228;22.498;2022-08-18T00:29:41;17.40;99.90
23149;DHT22;11743;51.228;22.498;2022-08-18T00:30:12;17.40;99.90
23149;DHT22;11743;51.228;22.498;2022-08-18T00:30:36;17.40;99.90
23149;DHT22;11743;51.228;22.498;2022-08-18T00:30:58;17.40;99.90
23149;DHT22;11743;51.228;22.498;2022-08-18T00:31:22;17.40;99.90
23149;DHT22;11743;51.228;22.498;2022-08-18T00:31:49;17.40;99.90
23149;DHT22;11743;51.228;22.498;2022-08-18T00:32:17;17.30;99.90
23149;DHT22;11743;51.228;22.498;2022-08-18T00:32:47;17.40;99.90
23149;DHT22;11743;51.228;22.498;2022-08-18T00:33:10;17.30;99.90
23149;DHT22;11743;51.228;22.498;2022-08-18T00:33:31;17.30;99.90
23149;DHT22;11743;51.228;22.498;2022-08-18T00:33:53;17.30;99.90
23149;DHT22;11743;51.228;22.498;2022-08-18T00:34:16;17.40;99.90
23149;DHT22;11743;51.228;22.498;2022-08-18T00:34:38;17.40;99.90
23149;DHT22;11743;51.228;22.498;2022-08-18T00:35:18;17.30;99.90
23149;DHT22;11743;51.228;22.498;2022-08-18T00:35:41;17.30;99.90
23149;DHT22;11743;51.228;22.498;2022-08-18T00:36:05;17.30;99.90
23149;DHT22;11743;51.228;22.498;2022-08-18T00:36:28;17.30;99.90
23149;DHT22;11743;51.228;22.498;2022-08-18T00:36:52;17.30;99.90
23149;DHT22;11743;51.228;22.498;2022-08-18T00:37:14;18.00;99.90
23149;DHT22;11743;51.228;22.498;2022-08-18T00:37:36;17.30;99.90
23149;DHT22;11743;51.228;22.498;2022-08-18T00:38:01;17.30;99.90
23149;DHT22;11743;51.228;22.498;2022-08-18T00:38:24;17.30;99.90
23149;DHT22;11743;51.228;22.498;2022-08-18T00:38:49;17.30;99.90
23149;DHT22;11743;51.228;22.498;2022-08-18T00:39:11;17.30;99.90
23149;DHT22;11743;51.228;22.498;2022-08-18T00:39:33;17.30;99.90
23149;DHT22;11743;51.228;22.498;2022-08-18T00:40:11;17.30;99.90
23149;DHT22;11743;51.228;22.498;2022-08-18T00:40:44;17.20;99.90
23149;DHT22;11743;51.228;22.498;2022-08-18T00:41:07;17.20;99.90
23149;DHT22;11743;51.228;22.498;2022-08-18T00:41:31;17.20;99.90
23149;DHT22;11743;51.228;22.498;2022-08-18T00:41:53;17.20;99.90
23149;DHT22;11743;51.228;22.498;2022-08-18T00:42:24;17.20;99.90
23149;DHT22;11743;51.228;22.498;2022-08-18T00:42:54;17.20;99.90
23149;DHT22;11743;51.228;22.498;2022-08-18T00:43:30;17.20;99.90
23149;DHT22;11743;51.228;22.498;2022-08-18T00:43:54;17.20;99.90
23149;DHT22;11743;51.228;22.498;2022-08-18T00:44:19;17.20;99.90
23149;DHT22;11743;51.228;22.498;2022-08-18T00:44:41;17.20;99.90
23149;DHT22;11743;51.228;22.498;2022-08-18T00:45:04;17.30;99.90
23149;DHT22;11743;51.228;22.498;2022-08-18T00:45:33;17.30;99.90
23149;DHT22;11743;51.228;22.498;2022-08-18T00:45:57;17.30;99.90
23149;DHT22;11743;51.228;22.498;2022-08-18T00:46:30;17.40;99.90
23149;DHT22;11743;51.228;22.498;2022-08-18T00:46:55;17.20;99.90
23149;DHT22;11743;51.228;22.498;2022-08-18T00:47:17;17.20;99.90
23149;DHT22;11743;51.228;22.498;2022-08-18T00:48:00;17.20;99.90
23149;DHT22;11743;51.228;22.498;2022-08-18T00:48:22;17.30;99.90
23149;DHT22;11743;51.228;22.498;2022-08-18T00:48:46;17.30;99.90
23149;DHT22;11743;51.228;22.498;2022-08-18T00:49:18;17.20;99.90
23149;DHT22;11743;51.228;22.498;2022-08-18T00:49:42;17.20;99.90
23149;DHT22;11743;51.228;22.498;2022-08-18T00:50:36;17.20;99.90
23149;DHT22;11743;51.228;22.498;2022-08-18T00:51:05;17.20;99.90
23149;DHT22;11743;51.228;22.498;2022-08-18T00:51:49;17.20;99.90
23149;DHT22;11743;51.228;22.498;2022-08-18T00:52:14;17.20;99.90
23149;DHT22;11743;51.228;22.498;2022-08-18T00:52:38;17.20;99.90
23149;DHT22;11743;51.228;22.498;2022-08-18T00:53:06;17.20;99.90
23149;DHT22;11743;51.228;22.498;2022-08-18T00:53:42;17.20;99.90
23149;DHT22;11743;51.228;22.498;2022-08-18T00:54:20;17.20;99.90
23149;DHT22;11743;51.228;22.498;2022-08-18T00:54:45;17.20;99.90
23149;DHT22;11743;51.228;22.498;2022-08-18T00:55:08;17.20;99.90
23149;DHT22;11743;51.228;22.498;2022-08-18T00:55:32;17.20;99.90
23149;DHT22;11743;51.228;22.498;2022-08-18T00:55:57;17.20;99.90
23149;DHT22;11743;51.228;22.498;2022-08-18T00:56:28;17.20;99.90
23149;DHT22;11743;51.228;22.498;2022-08-18T00:56:56;17.20;99.90
23149;DHT22;11743;51.228;22.498;2022-08-18T00:57:19;17.30;99.90
23149;DHT22;11743;51.228;22.498;2022-08-18T00:57:47;17.30;99.90
23149;DHT22;11743;51.228;22.498;2022-08-18T00:58:27;17.30;99.90
23149;DHT22;11743;51.228;22.498;2022-08-18T00:59:04;17.30;99.90
23149;DHT22;11743;51.228;22.498;2022-08-18T01:00:06;17.40;99.90
23149;DHT22;11743;51.228;22.498;2022-08-18T01:00:36;17.30;99.90
23149;DHT22;11743;51.228;22.498;2022-08-18T01:00:59;17.30;99.90
23149;DHT22;11743;51.228;22.498;2022-08-18T01:01:28;17.30;99.90
23149;DHT22;11743;51.228;22.498;2022-08-18T01:01:52;17.30;99.90
23149;DHT22;11743;51.228;22.498;2022-08-18T01:02:23;17.40;99.90
23149;DHT22;11743;51.228;22.498;2022-08-18T01:03:03;17.30;99.90
23149;DHT22;11743;51.228;22.498;2022-08-18T01:03:29;17.30;99.90
23149;DHT22;11743;51.228;22.498;2022-08-18T01:04:44;17.30;99.90
23149;DHT22;11743;51.228;22.498;2022-08-18T01:05:11;17.30;99.90
23149;DHT22;11743;51.228;22.498;2022-08-18T01:05:38;17.30;99.90
23149;DHT22;11743;51.228;22.498;2022-08-18T01:06:15;17.30;99.90
23149;DHT22;11743;51.228;22.498;2022-08-18T01:06:51;17.30;99.90
23149;DHT22;11743;51.228;22.498;2022-08-18T01:07:27;17.20;99.90
23149;DHT22;11743;51.228;22.498;2022-08-18T01:07:51;17.20;99.90
23149;DHT22;11743;51.228;22.498;2022-08-18T01:08:15;17.20;99.90
23149;DHT22;11743;51.228;22.498;2022-08-18T01:08:49;17.20;99.90
23149;DHT22;11743;51.228;22.498;2022-08-18T01:09:12;17.20;99.90
23149;DHT22;11743;51.228;22.498;2022-08-18T01:09:34;17.20;99.90
23149;DHT22;11743;51.228;22.498;2022-08-18T01:09:57;17.20;99.90
23149;DHT22;11743;51.228;22.498;2022-08-18T01:10:22;17.20;99.90
23149;DHT22;11743;51.228;22.498;2022-08-18T01:10:45;17.20;99.90
23149;DHT22;11743;51.228;22.498;2022-08-18T01:11:09;17.20;99.90
23149;DHT22;11743;51.228;22.498;2022-08-18T01:11:37;17.20;99.90
23149;DHT22;11743;51.228;22.498;2022-08-18T01:11:59;17.00;99.90
23149;DHT22;11743;51.228;22.498;2022-08-18T01:12:44;17.50;99.90
23149;DHT22;11743;51.228;22.498;2022-08-18T01:13:09;17.10;99.90
23149;DHT22;11743;51.228;22.498;2022-08-18T01:13:32;17.10;99.90
23149;DHT22;11743;51.228;22.498;2022-08-18T01:13:59;17.10;99.90
23149;DHT22;11743;51.228;22.498;2022-08-18T01:14:24;17.40;99.90
23149;DHT22;11743;51.228;22.498;2022-08-18T01:15:08;17.10;99.90
23149;DHT22;11743;51.228;22.498;2022-08-18T01:15:49;17.10;99.90
23149;DHT22;11743;51.228;22.498;2022-08-18T01:16:11;17.10;99.90
23149;DHT22;11743;51.228;22.498;2022-08-18T01:16:51;17.00;99.90
23149;DHT22;11743;51.228;22.498;2022-08-18T01:17:33;17.10;99.90
23149;DHT22;11743;51.228;22.498;2022-08-18T01:18:14;17.00;99.90
23149;DHT22;11743;51.228;22.498;2022-08-18T01:19:10;17.00;99.90
23149;DHT22;11743;51.228;22.498;2022-08-18T01:19:52;17.00;99.90
23149;DHT22;11743;51.228;22.498;2022-08-18T01:20:40;17.00;99.90
23149;DHT22;11743;51.228;22.498;2022-08-18T01:21:28;17.00;99.90
23149;DHT22;11743;51.228;22.498;2022-08-18T01:22:28;17.00;99.90
23149;DHT22;11743;51.228;22.498;2022-08-18T01:23:13;17.00;99.90
23149;DHT22;11743;51.228;22.498;2022-08-18T01:23:36;17.00;99.90
23149;DHT22;11743;51.228;22.498;2022-08-18T01:24:03;16.90;99.90
23149;DHT22;11743;51.228;22.498;2022-08-18T01:24:33;16.90;99.90
23149;DHT22;11743;51.228;22.498;2022-08-18T01:25:20;16.90;99.90
23149;DHT22;11743;51.228;22.498;2022-08-18T01:26:04;17.00;99.90
23149;DHT22;11743;51.228;22.498;2022-08-18T01:26:28;16.90;99.90
23149;DHT22;11743;51.228;22.498;2022-08-18T01:26:53;16.90;99.90
23149;DHT22;11743;51.228;22.498;2022-08-18T01:27:18;16.90;99.90
23149;DHT22;11743;51.228;22.498;2022-08-18T01:27:44;16.90;99.90
23149;DHT22;11743;51.228;22.498;2022-08-18T01:28:06;16.90;99.90
23149;DHT22;11743;51.228;22.498;2022-08-18T01:28:33;16.90;99.90
23149;DHT22;11743;51.228;22.498;2022-08-18T01:29:04;16.90;99.90
23149;DHT22;11743;51.228;22.498;2022-08-18T01:29:34;16.80;99.90
23149;DHT22;11743;51.228;22.498;2022-08-18T01:30:07;16.80;99.90
23149;DHT22;11743;51.228;22.498;2022-08-18T01:30:32;16.90;99.90
23149;DHT22;11743;51.228;22.498;2022-08-18T01:30:58;16.80;99.90
23149;DHT22;11743;51.228;22.498;2022-08-18T01:31:34;16.80;99.90
23149;DHT22;11743;51.228;22.498;2022-08-18T01:31:58;16.90;99.90
23149;DHT22;11743;51.228;22.498;2022-08-18T01:32:22;16.80;99.90
23149;DHT22;11743;51.228;22.498;2022-08-18T01:32:51;16.80;99.90
23149;DHT22;11743;51.228;22.498;2022-08-18T01:33:14;16.90;99.90
23149;DHT22;11743;51.228;22.498;2022-08-18T01:33:41;16.90;99.90
23149;DHT22;11743;51.228;22.498;2022-08-18T01:34:10;16.90;99.90
23149;DHT22;11743;51.228;22.498;2022-08-18T01:34:32;16.90;99.90
23149;DHT22;11743;51.228;22.498;2022-08-18T01:34:54;16.90;99.90
23149;DHT22;11743;51.228;22.498;2022-08-18T01:35:21;17.00;99.90
23149;DHT22;11743;51.228;22.498;2022-08-18T01:35:48;17.00;99.90
23149;DHT22;11743;51.228;22.498;2022-08-18T01:36:17;17.00;99.90
23149;DHT22;11743;51.228;22.498;2022-08-18T01:36:41;17.00;99.90
23149;DHT22;11743;51.228;22.498;2022-08-18T01:37:06;17.00;99.90
23149;DHT22;11743;51.228;22.498;2022-08-18T01:37:32;17.00;99.90
23149;DHT22;11743;51.228;22.498;2022-08-18T01:37:54;17.00;99.90
23149;DHT22;11743;51.228;22.498;2022-08-18T01:38:22;17.00;99.90
23149;DHT22;11743;51.228;22.498;2022-08-18T01:38:49;17.00;99.90
23149;DHT22;11743;51.228;22.498;2022-08-18T01:39:12;17.00;99.90
23149;DHT22;11743;51.228;22.498;2022-08-18T01:39:34;17.00;99.90
23149;DHT22;11743;51.228;22.498;2022-08-18T01:40:21;17.00;99.90
23149;DHT22;11743;51.228;22.498;2022-08-18T01:41:10;17.00;99.90
23149;DHT22;11743;51.228;22.498;2022-08-18T01:41:51;16.90;99.90
23149;DHT22;11743;51.228;22.498;2022-08-18T01:42:18;16.90;99.90
23149;DHT22;11743;51.228;22.498;2022-08-18T01:42:41;16.90;99.90
23149;DHT22;11743;51.228;22.498;2022-08-18T01:43:05;16.90;99.90
23149;DHT22;11743;51.228;22.498;2022-08-18T01:43:28;16.90;99.90
23149;DHT22;11743;51.228;22.498;2022-08-18T01:43:49;16.90;99.90
23149;DHT22;11743;51.228;22.498;2022-08-18T01:44:11;16.90;99.90
23149;DHT22;11743;51.228;22.498;2022-08-18T01:44:34;16.90;99.90
23149;DHT22;11743;51.228;22.498;2022-08-18T01:44:55;16.90;99.90
23149;DHT22;11743;51.228;22.498;2022-08-18T01:45:17;16.90;99.90
23149;DHT22;11743;51.228;22.498;2022-08-18T01:45:42;16.90;99.90
23149;DHT22;11743;51.228;22.498;2022-08-18T01:46:06;16.90;99.90
23149;DHT22;11743;51.228;22.498;2022-08-18T01:46:32;16.90;99.90
23149;DHT22;11743;51.228;22.498;2022-08-18T01:46:56;16.90;99.90
23149;DHT22;11743;51.228;22.498;2022-08-18T01:47:19;16.90;99.90
23149;DHT22;11743;51.228;22.498;2022-08-18T01:47:44;16.90;99.90
23149;DHT22;11743;51.228;22.498;2022-08-18T01:48:09;16.90;99.90
23149;DHT22;11743;51.228;22.498;2022-08-18T01:48:33;16.90;99.90
23149;DHT22;11743;51.228;22.498;2022-08-18T01:48:57;16.90;99.90
23149;DHT22;11743;51.228;22.498;2022-08-18T01:49:25;16.90;99.90
23149;DHT22;11743;51.228;22.498;2022-08-18T01:49:50;16.90;99.90
23149;DHT22;11743;51.228;22.498;2022-08-18T01:50:14;16.90;99.90
23149;DHT22;11743;51.228;22.498;2022-08-18T01:50:41;16.90;99.90
23149;DHT22;11743;51.228;22.498;2022-08-18T01:51:08;16.90;99.90
23149;DHT22;11743;51.228;22.498;2022-08-18T01:51:31;16.90;99.90
23149;DHT22;11743;51.228;22.498;2022-08-18T01:52:01;16.90;99.90
23149;DHT22;11743;51.228;22.498;2022-08-18T01:52:23;16.90;99.90
23149;DHT22;11743;51.228;22.498;2022-08-18T01:52:51;16.90;99.90
23149;DHT22;11743;51.228;22.498;2022-08-18T01:53:17;16.80;99.90
23149;DHT22;11743;51.228;22.498;2022-08-18T01:53:42;16.80;99.90
23149;DHT22;11743;51.228;22.498;2022-08-18T01:54:08;16.80;99.90
23149;DHT22;11743;51.228;22.498;2022-08-18T01:54:40;16.80;99.90
23149;DHT22;11743;51.228;22.498;2022-08-18T01:55:08;16.80;99.90
23149;DHT22;11743;51.228;22.498;2022-08-18T01:55:35;16.80;99.90
23149;DHT22;11743;51.228;22.498;2022-08-18T01:56:16;16.80;99.90
23149;DHT22;11743;51.228;22.498;2022-08-18T01:56:40;16.80;99.90
23149;DHT22;11743;51.228;22.498;2022-08-18T01:57:12;16.80;99.90
23149;DHT22;11743;51.228;22.498;2022-08-18T01:57:38;16.80;99.90
23149;DHT22;11743;51.228;22.498;2022-08-18T01:58:07;16.80;99.90
23149;DHT22;11743;51.228;22.498;2022-08-18T01:58:34;16.80;99.90
23149;DHT22;11743;51.228;22.498;2022-08-18T01:58:56;16.80;99.90
23149;DHT22;11743;51.228;22.498;2022-08-18T01:59:19;16.90;99.90
23149;DHT22;11743;51.228;22.498;2022-08-18T01:59:43;16.90;99.90
23149;DHT22;11743;51.228;22.498;2022-08-18T02:00:09;16.90;99.90
23149;DHT22;11743;51.228;22.498;2022-08-18T02:00:50;16.90;99.90
23149;DHT22;11743;51.228;22.498;2022-08-18T02:01:19;16.90;99.90
23149;DHT22;11743;51.228;22.498;2022-08-18T02:01:57;17.00;99.90
23149;DHT22;11743;51.228;22.498;2022-08-18T02:02:27;17.00;99.90
23149;DHT22;11743;51.228;22.498;2022-08-18T02:02:54;17.00;99.90
23149;DHT22;11743;51.228;22.498;2022-08-18T02:03:29;17.00;99.90
23149;DHT22;11743;51.228;22.498;2022-08-18T02:04:00;17.10;99.90
23149;DHT22;11743;51.228;22.498;2022-08-18T02:04:47;17.10;99.90
23149;DHT22;11743;51.228;22.498;2022-08-18T02:05:20;17.00;99.90
23149;DHT22;11743;51.228;22.498;2022-08-18T02:05:48;17.00;99.90
23149;DHT22;11743;51.228;22.498;2022-08-18T02:06:17;17.00;99.90
23149;DHT22;11743;51.228;22.498;2022-08-18T02:07:02;17.00;99.90
23149;DHT22;11743;51.228;22.498;2022-08-18T02:07:25;17.00;99.90
23149;DHT22;11743;51.228;22.498;2022-08-18T02:07:57;16.90;99.90
23149;DHT22;11743;51.228;22.498;2022-08-18T02:08:18;16.90;99.90
23149;DHT22;11743;51.228;22.498;2022-08-18T02:08:49;16.90;99.90
23149;DHT22;11743;51.228;22.498;2022-08-18T02:09:18;16.90;99.90
23149;DHT22;11743;51.228;22.498;2022-08-18T02:09:44;16.90;99.90
23149;DHT22;11743;51.228;22.498;2022-08-18T02:10:13;16.90;99.90
23149;DHT22;11743;51.228;22.498;2022-08-18T02:10:41;16.90;99.90
23149;DHT22;11743;51.228;22.498;2022-08-18T02:11:06;16.90;99.90
23149;DHT22;11743;51.228;22.498;2022-08-18T02:11:29;16.90;99.90
23149;DHT22;11743;51.228;22.498;2022-08-18T02:11:51;16.90;99.90
23149;DHT22;11743;51.228;22.498;2022-08-18T02:12:16;16.90;99.90
23149;DHT22;11743;51.228;22.498;2022-08-18T02:12:39;16.90;99.90
23149;DHT22;11743;51.228;22.498;2022-08-18T02:13:01;16.90;99.90
23149;DHT22;11743;51.228;22.498;2022-08-18T02:13:24;16.90;99.90
23149;DHT22;11743;51.228;22.498;2022-08-18T02:13:46;16.90;99.90
23149;DHT22;11743;51.228;22.498;2022-08-18T02:14:08;16.90;99.90
23149;DHT22;11743;51.228;22.498;2022-08-18T02:14:30;16.90;99.90
23149;DHT22;11743;51.228;22.498;2022-08-18T02:14:52;16.90;99.90
23149;DHT22;11743;51.228;22.498;2022-08-18T02:15:14;16.90;99.90
23149;DHT22;11743;51.228;22.498;2022-08-18T02:15:36;16.90;99.90
23149;DHT22;11743;51.228;22.498;2022-08-18T02:16:03;17.00;99.90
23149;DHT22;11743;51.228;22.498;2022-08-18T02:16:25;17.00;99.90
23149;DHT22;11743;51.228;22.498;2022-08-18T02:16:47;17.00;99.90
23149;DHT22;11743;51.228;22.498;2022-08-18T02:17:11;17.00;99.90
23149;DHT22;11743;51.228;22.498;2022-08-18T02:17:41;16.70;99.90
23149;DHT22;11743;51.228;22.498;2022-08-18T02:18:03;17.00;99.90
23149;DHT22;11743;51.228;22.498;2022-08-18T02:18:29;17.00;99.90
23149;DHT22;11743;51.228;22.498;2022-08-18T02:19:09;17.00;99.90
23149;DHT22;11743;51.228;22.498;2022-08-18T02:19:35;17.10;99.90
23149;DHT22;11743;51.228;22.498;2022-08-18T02:19:58;17.10;99.90
23149;DHT22;11743;51.228;22.498;2022-08-18T02:20:21;17.10;99.90
23149;DHT22;11743;51.228;22.498;2022-08-18T02:20:43;17.10;99.90
23149;DHT22;11743;51.228;22.498;2022-08-18T02:21:11;17.10;99.90
23149;DHT22;11743;51.228;22.498;2022-08-18T02:21:33;17.10;99.90
23149;DHT22;11743;51.228;22.498;2022-08-18T02:21:55;17.10;99.90
23149;DHT22;11743;51.228;22.498;2022-08-18T02:22:19;17.10;99.90
23149;DHT22;11743;51.228;22.498;2022-08-18T02:22:42;17.10;99.90
23149;DHT22;11743;51.228;22.498;2022-08-18T02:23:04;17.10;99.90
23149;DHT22;11743;51.228;22.498;2022-08-18T02:23:26;17.10;99.90
23149;DHT22;11743;51.228;22.498;2022-08-18T02:23:48;17.00;99.90
23149;DHT22;11743;51.228;22.498;2022-08-18T02:24:14;17.00;99.90
23149;DHT22;11743;51.228;22.498;2022-08-18T02:24:36;17.00;99.90
23149;DHT22;11743;51.228;22.498;2022-08-18T02:24:58;17.00;99.90
23149;DHT22;11743;51.228;22.498;2022-08-18T02:25:20;17.00;99.90
23149;DHT22;11743;51.228;22.498;2022-08-18T02:25:44;17.00;99.90
23149;DHT22;11743;51.228;22.498;2022-08-18T02:26:08;17.00;99.90
23149;DHT22;11743;51.228;22.498;2022-08-18T02:26:30;17.00;99.90
23149;DHT22;11743;51.228;22.498;2022-08-18T02:26:54;16.90;99.90
23149;DHT22;11743;51.228;22.498;2022-08-18T02:27:16;16.90;99.90
23149;DHT22;11743;51.228;22.498;2022-08-18T02:27:38;16.90;99.90
23149;DHT22;11743;51.228;22.498;2022-08-18T02:28:00;16.90;99.90
23149;DHT22;11743;51.228;22.498;2022-08-18T02:28:22;16.90;99.90
23149;DHT22;11743;51.228;22.498;2022-08-18T02:28:51;16.90;99.90
23149;DHT22;11743;51.228;22.498;2022-08-18T02:29:12;16.90;99.90
23149;DHT22;11743;51.228;22.498;2022-08-18T02:29:35;16.80;99.90
23149;DHT22;11743;51.228;22.498;2022-08-18T02:29:59;16.90;99.90
23149;DHT22;11743;51.228;22.498;2022-08-18T02:30:21;16.80;99.90
23149;DHT22;11743;51.228;22.498;2022-08-18T02:30:44;16.80;99.90
23149;DHT22;11743;51.228;22.498;2022-08-18T02:31:08;16.80;99.90
23149;DHT22;11743;51.228;22.498;2022-08-18T02:31:32;16.80;99.90
23149;DHT22;11743;51.228;22.498;2022-08-18T02:31:54;16.80;99.90
23149;DHT22;11743;51.228;22.498;2022-08-18T02:32:16;16.70;99.90
23149;DHT22;11743;51.228;22.498;2022-08-18T02:32:38;16.80;99.90
23149;DHT22;11743;51.228;22.498;2022-08-18T02:32:59;16.80;99.90
23149;DHT22;11743;51.228;22.498;2022-08-18T02:33:22;16.70;99.90
23149;DHT22;11743;51.228;22.498;2022-08-18T02:33:46;16.80;99.90
23149;DHT22;11743;51.228;22.498;2022-08-18T02:34:14;16.80;99.90
23149;DHT22;11743;51.228;22.498;2022-08-18T02:34:37;16.80;99.90
23149;DHT22;11743;51.228;22.498;2022-08-18T02:34:59;16.70;99.90
23149;DHT22;11743;51.228;22.498;2022-08-18T02:35:21;16.80;99.90
23149;DHT22;11743;51.228;22.498;2022-08-18T02:35:43;16.70;99.90
23149;DHT22;11743;51.228;22.498;2022-08-18T02:36:07;16.70;99.90
23149;DHT22;11743;51.228;22.498;2022-08-18T02:36:30;16.70;99.90
23149;DHT22;11743;51.228;22.498;2022-08-18T02:36:53;16.70;99.90
23149;DHT22;11743;51.228;22.498;2022-08-18T02:37:15;16.70;99.90
23149;DHT22;11743;51.228;22.498;2022-08-18T02:37:38;16.70;99.90
23149;DHT22;11743;51.228;22.498;2022-08-18T02:38:04;16.70;99.90
23149;DHT22;11743;51.228;22.498;2022-08-18T02:38:28;16.80;99.90
23149;DHT22;11743;51.228;22.498;2022-08-18T02:38:54;16.70;99.90
23149;DHT22;11743;51.228;22.498;2022-08-18T02:39:20;16.80;99.90
23149;DHT22;11743;51.228;22.498;2022-08-18T02:39:42;16.80;99.90
23149;DHT22;11743;51.228;22.498;2022-08-18T02:40:06;16.80;99.90
23149;DHT22;11743;51.228;22.498;2022-08-18T02:40:28;16.80;99.90
23149;DHT22;11743;51.228;22.498;2022-08-18T02:40:57;16.80;99.90
23149;DHT22;11743;51.228;22.498;2022-08-18T02:41:20;16.80;99.90
23149;DHT22;11743;51.228;22.498;2022-08-18T02:41:43;16.80;99.90
23149;DHT22;11743;51.228;22.498;2022-08-18T02:42:07;16.80;99.90
23149;DHT22;11743;51.228;22.498;2022-08-18T02:42:29;16.80;99.90
23149;DHT22;11743;51.228;22.498;2022-08-18T02:42:52;16.80;99.90
23149;DHT22;11743;51.228;22.498;2022-08-18T02:43:13;16.80;99.90
23149;DHT22;11743;51.228;22.498;2022-08-18T02:43:37;16.80;99.90
23149;DHT22;11743;51.228;22.498;2022-08-18T02:43:59;16.80;99.90
23149;DHT22;11743;51.228;22.498;2022-08-18T02:44:21;16.80;99.90
23149;DHT22;11743;51.228;22.498;2022-08-18T02:44:43;16.80;99.90
23149;DHT22;11743;51.228;22.498;2022-08-18T02:45:05;16.80;99.90
23149;DHT22;11743;51.228;22.498;2022-08-18T02:45:30;16.80;99.90
23149;DHT22;11743;51.228;22.498;2022-08-18T02:45:53;16.80;99.90
23149;DHT22;11743;51.228;22.498;2022-08-18T02:46:15;16.80;99.90
23149;DHT22;11743;51.228;22.498;2022-08-18T02:46:37;16.70;99.90
23149;DHT22;11743;51.228;22.498;2022-08-18T02:47:01;16.80;99.90
23149;DHT22;11743;51.228;22.498;2022-08-18T02:47:24;16.80;99.90
23149;DHT22;11743;51.228;22.498;2022-08-18T02:47:55;16.80;99.90
23149;DHT22;11743;51.228;22.498;2022-08-18T02:48:17;16.80;99.90